This is the latest recevied weather packets stored in our database for station/object SR8WXL-13. If no packets are shown the sender has not sent any weather packets the latest 10 day(s).
| Time | Temp. | Humidity | Pressure | Rain* | Wind** | Luminosity | Snow |
|---|---|---|---|---|---|---|---|
| 1788114799 | 16.11° C | 86% | 1031.4 hPa | 0 mm | - | - | - |
| 1788114019 | 17.22° C | 85% | 1031.3 hPa | 0 mm | - | - | - |
| 1788113293 | 17.78° C | 82% | 1031.3 hPa | 0 mm | - | - | - |
| 1788112422 | 17.78° C | 81% | 1031.1 hPa | 0 mm | - | - | - |
| 1788111543 | 18.89° C | 77% | 1031.1 hPa | 0 mm | - | - | - |
| 1788110732 | 20° C | 76% | 1030.8 hPa | 0 mm | - | - | - |
| 1788109880 | 22.22° C | 65% | 1030.6 hPa | 0 mm | - | - | - |
| 1788109053 | 22.78° C | 64% | 1030.6 hPa | 0 mm | - | - | - |
| 1788108200 | 25° C | 56% | 1030.6 hPa | 0 mm | - | - | - |
| 1788107373 | 25° C | 54% | 1030.2 hPa | 0 mm | - | - | - |
| 1788106629 | 26.11° C | 52% | 1030.4 hPa | 0 mm | - | - | - |
| 1788105742 | 27.78° C | 44% | 1030.4 hPa | 0 mm | - | - | - |
| 1788105022 | 27.78° C | 43% | 1030.3 hPa | 0 mm | - | - | - |
| 1788104198 | 27.78° C | 43% | 1030.4 hPa | 0 mm | - | - | - |
| 1788103329 | 27.78° C | 41% | 1030.5 hPa | 0 mm | - | - | - |
| 1788102463 | 27.78° C | 42% | 1030.5 hPa | 0 mm | - | - | - |
| 1788101677 | 27.78° C | 43% | 1030.7 hPa | 0 mm | - | - | - |
| 1788100808 | 27.78° C | 43% | 1030.9 hPa | 0 mm | - | - | - |
| 1788099986 | 27.22° C | 46% | 1030.6 hPa | 0 mm | - | - | - |
| 1788099269 | 27.22° C | 46% | 1030.7 hPa | 0 mm | - | - | - |
| 1788098545 | 27.78° C | 45% | 1030.6 hPa | 0 mm | - | - | - |
| 1788097648 | 27.78° C | 44% | 1030.8 hPa | 0 mm | - | - | - |
| 1788096872 | 27.78° C | 46% | 1030.9 hPa | 0 mm | - | - | - |
| 1788096007 | 27.78° C | 47% | 1030.9 hPa | 0 mm | - | - | - |
| 1788095189 | 27.22° C | 49% | 1031.1 hPa | 0 mm | - | - | - |
* Rain latest hour (hover to see other rain measurements)
** Current wind speed in m/s (hover to see current wind gust speed)